Time;durP1;ratioP1;P1;durP2;ratioP2;P2;SDS_P1;SDS_P2;PMS_P1;PMS_P2;Temp;Humidity;BMP_temperature;BMP_pressure;BME280_temperature;BME280_humidity;BME280_pressure;Samples;Min_cycle;Max_cycle;Signal;HPM_P1;HPM_P2
2024/01/23 00:56:36;;;;;;;;;;;;;;;7.01;69.04;101190.47;7375278;19;19922;-62
2024/01/23 00:59:02;;;;;;;;;;;;;;;7.06;68.96;101184.44;7361691;19;19927;-64
2024/01/23 01:01:27;;;;;;;;;;;;;;;7.10;68.95;101186.16;7362777;19;19914;-63
2024/01/23 01:03:52;;;;;;;;;;;;;;;7.14;68.82;101206.06;7366018;19;19922;-64
2024/01/23 01:06:18;;;;;;;;;;;;;;;7.17;68.96;101195.66;7362663;19;19911;-62
2024/01/23 01:08:44;;;;;;;;;;;;;;;7.19;68.71;101196.53;7360250;19;19914;-64
2024/01/23 01:11:10;;;;;;;;;;;;;;;7.22;68.69;101186.13;7358980;19;20327;-63
2024/01/23 01:56:36;;;;;;;;;;;;;;;7.44;69.02;101143.66;7386435;19;19915;-63
2024/01/23 01:59:02;;;;;;;;;;;;;;;7.48;68.81;101137.59;7365069;19;19929;-62
2024/01/23 02:01:27;;;;;;;;;;;;;;;7.50;69.19;101128.06;7364557;19;19914;-63
2024/01/23 02:03:53;;;;;;;;;;;;;;;7.52;69.09;101128.06;7362542;19;19951;-63
2024/01/23 02:06:19;;;;;;;;;;;;;;;7.56;68.86;101131.50;7367134;19;19922;-63
2024/01/23 02:08:45;;;;;;;;;;;;;;;7.58;68.71;101114.16;7367016;19;19907;-63
2024/01/23 02:11:10;;;;;;;;;;;;;;;7.60;69.11;101112.41;7367782;19;19907;-63
2024/01/23 05:57:56;;;;;;;;;;;;;;;8.38;70.37;100556.06;7361355;19;19949;-61
2024/01/23 06:00:21;;;;;;;;;;;;;;;8.38;70.37;100545.66;7365233;19;20444;-60
2024/01/23 06:02:46;;;;;;;;;;;;;;;8.37;70.52;100525.72;7365842;19;19947;-62
2024/01/23 06:05:12;;;;;;;;;;;;;;;8.38;70.40;100526.56;7362126;19;19934;-62
2024/01/23 06:07:40;;;;;;;;;;;;;;;8.39;70.60;100518.72;7362489;19;19918;-61
2024/01/23 06:10:06;;;;;;;;;;;;;;;8.39;70.29;100513.53;7365852;19;19926;-62
2024/01/23 06:12:31;;;;;;;;;;;;;;;8.40;70.76;100507.44;7363116;19;19911;-62
2024/01/23 06:14:56;;;;;;;;;;;;;;;8.42;70.70;100481.41;7364255;19;19925;-61
2024/01/23 06:17:22;;;;;;;;;;;;;;;8.42;70.86;100477.06;7365545;19;20014;-63
2024/01/23 06:19:47;;;;;;;;;;;;;;;8.43;70.99;100467.50;7366251;19;19940;-60
2024/01/23 06:22:13;;;;;;;;;;;;;;;8.44;71.02;100464.03;7368311;19;19915;-60
2024/01/23 06:24:38;;;;;;;;;;;;;;;8.44;70.67;100449.25;7371313;19;20308;-60
2024/01/23 06:27:04;;;;;;;;;;;;;;;8.45;70.72;100437.97;7370786;19;19971;-62
2024/01/23 06:29:29;;;;;;;;;;;;;;;8.45;71.06;100430.16;7367817;19;19979;-62
2024/01/23 06:31:54;;;;;;;;;;;;;;;8.46;71.16;100408.44;7367518;19;19915;-63
2024/01/23 06:34:21;;;;;;;;;;;;;;;8.47;70.81;100406.72;7372757;19;20280;-62
2024/01/23 06:36:47;;;;;;;;;;;;;;;8.47;70.90;100391.97;7372635;19;19927;-62
2024/01/23 06:39:12;;;;;;;;;;;;;;;8.49;71.26;100379.78;7372415;19;19918;-62
2024/01/23 06:41:38;;;;;;;;;;;;;;;8.49;71.57;100374.56;7370890;19;19913;-61
2024/01/23 06:44:03;;;;;;;;;;;;;;;8.52;71.21;100358.91;7370144;19;19926;-62
2024/01/23 06:46:28;;;;;;;;;;;;;;;8.53;71.48;100350.19;7370463;19;19911;-63
2024/01/23 06:48:54;;;;;;;;;;;;;;;8.55;71.48;100332.81;7370832;19;19915;-62
2024/01/23 06:51:20;;;;;;;;;;;;;;;8.57;71.99;100331.03;7369494;19;19994;-63
2024/01/23 06:53:45;;;;;;;;;;;;;;;8.58;71.61;100322.34;7367052;19;19919;-62
2024/01/23 06:56:10;;;;;;;;;;;;;;;8.61;71.77;100310.13;7369057;19;20026;-62
2024/01/23 06:58:35;;;;;;;;;;;;;;;8.64;71.93;100304.88;7365799;19;19922;-62
2024/01/23 07:01:01;;;;;;;;;;;;;;;8.67;71.68;100281.38;7369756;19;19975;-64
2024/01/23 07:03:26;;;;;;;;;;;;;;;8.70;71.75;100281.31;7366508;19;19931;-63
2024/01/23 07:05:51;;;;;;;;;;;;;;;8.71;71.98;100263.06;7370440;19;19935;-63
2024/01/23 07:08:16;;;;;;;;;;;;;;;8.73;71.51;100248.28;7373536;19;19919;-62
2024/01/23 07:10:42;;;;;;;;;;;;;;;8.76;71.95;100231.72;7327165;19;19953;-62
2024/01/23 07:13:07;;;;;;;;;;;;;;;8.79;71.76;100231.66;7372978;19;20186;-61
2024/01/23 07:15:33;;;;;;;;;;;;;;;8.82;71.71;100229.84;7368181;19;19911;-62
2024/01/23 07:17:58;;;;;;;;;;;;;;;8.88;71.87;100223.63;7372658;19;19965;-63
2024/01/23 07:20:23;;;;;;;;;;;;;;;8.92;71.93;100209.66;7367439;19;20013;-62
2024/01/23 07:22:49;;;;;;;;;;;;;;;9.00;72.08;100193.84;7376164;19;19966;-63
2024/01/23 07:25:14;;;;;;;;;;;;;;;9.05;72.53;100187.63;7369378;19;19927;-63
2024/01/23 07:27:39;;;;;;;;;;;;;;;9.12;72.21;100183.09;7372000;19;19913;-64
2024/01/23 07:30:05;;;;;;;;;;;;;;;9.18;72.37;100163.88;7370129;19;20385;-63
2024/01/23 07:32:30;;;;;;;;;;;;;;;9.26;72.70;100138.47;7364242;19;19914;-62
2024/01/23 07:34:55;;;;;;;;;;;;;;;9.35;73.05;100148.66;7372869;19;19914;-64
2024/01/23 07:37:21;;;;;;;;;;;;;;;9.42;72.68;100118.91;7377263;19;19928;-63
2024/01/23 07:39:49;;;;;;;;;;;;;;;9.52;72.82;100115.16;7378093;19;19918;-63
2024/01/23 07:42:14;;;;;;;;;;;;;;;9.62;73.10;100108.81;7373019;19;19929;-63
2024/01/23 07:44:39;;;;;;;;;;;;;;;9.73;73.20;100092.00;7367396;19;19919;-64
2024/01/23 07:47:05;;;;;;;;;;;;;;;9.83;73.38;100093.44;7364754;19;19928;-64
2024/01/23 07:49:30;;;;;;;;;;;;;;;9.94;73.23;100090.53;7368846;19;19918;-64
2024/01/23 07:51:55;;;;;;;;;;;;;;;10.02;73.64;100068.53;7366187;19;19925;-65
2024/01/23 07:54:21;;;;;;;;;;;;;;;10.11;73.62;100052.59;7363533;19;20412;-64
2024/01/23 07:56:46;;;;;;;;;;;;;;;10.21;73.48;100036.66;7368211;19;19923;-64
2024/01/23 07:59:12;;;;;;;;;;;;;;;10.30;73.81;100052.06;7368137;19;19919;-63
2024/01/23 08:01:37;;;;;;;;;;;;;;;10.38;74.08;100034.38;7371113;19;20261;-63
2024/01/23 08:04:02;;;;;;;;;;;;;;;10.45;73.67;100015.00;7366681;19;20733;-63
2024/01/23 08:06:27;;;;;;;;;;;;;;;10.54;74.25;99999.06;7357452;19;19914;-63
2024/01/23 08:08:53;;;;;;;;;;;;;;;10.61;73.87;99987.47;7336605;19;21882;-66
2024/01/23 08:11:20;;;;;;;;;;;;;;;10.67;73.87;99986.41;7355753;19;19911;-64
2024/01/23 08:13:45;;;;;;;;;;;;;;;10.74;74.34;99966.16;7362673;19;20000;-65
2024/01/23 08:16:11;;;;;;;;;;;;;;;10.79;74.25;99961.63;7368996;19;19986;-65
2024/01/23 08:18:36;;;;;;;;;;;;;;;10.87;74.43;99970.91;7368289;19;19915;-65
2024/01/23 08:21:02;;;;;;;;;;;;;;;10.94;74.39;99955.84;7365930;19;19938;-65
2024/01/23 08:23:27;;;;;;;;;;;;;;;10.99;74.43;99951.31;7360896;19;19919;-66
2024/01/23 08:25:53;;;;;;;;;;;;;;;11.05;74.77;99958.94;7369161;19;19933;-66
2024/01/23 08:28:18;;;;;;;;;;;;;;;11.10;74.76;99941.34;7366881;19;19945;-67
2024/01/23 08:30:43;;;;;;;;;;;;;;;11.17;74.33;99958.50;7366459;19;19919;-67
2024/01/23 08:33:09;;;;;;;;;;;;;;;11.24;74.61;99942.56;7366296;19;19915;-66
2024/01/23 08:35:35;;;;;;;;;;;;;;;11.28;74.67;99939.78;7362349;19;19923;-66
2024/01/23 08:38:00;;;;;;;;;;;;;;;11.34;74.81;99928.25;7366263;19;19921;-66
2024/01/23 08:40:27;;;;;;;;;;;;;;;11.39;74.68;99927.16;7368472;19;19946;-66
2024/01/23 08:42:52;;;;;;;;;;;;;;;11.45;74.76;99894.69;7368137;19;19955;-65
2024/01/23 08:45:17;;;;;;;;;;;;;;;11.51;74.47;99888.41;7362617;19;19911;-67
2024/01/23 08:47:42;;;;;;;;;;;;;;;11.54;74.85;99894.34;7363578;19;19987;-67
2024/01/23 08:50:08;;;;;;;;;;;;;;;11.59;74.82;99896.78;7365926;19;20340;-66
2024/01/23 08:52:33;;;;;;;;;;;;;;;11.63;74.80;99885.28;7350856;19;19922;-66
2024/01/23 08:54:58;;;;;;;;;;;;;;;11.66;74.66;99864.25;7365254;19;19915;-65
2024/01/23 08:57:24;;;;;;;;;;;;;;;11.69;74.27;99867.56;7356972;19;20165;-65
2024/01/23 08:59:49;;;;;;;;;;;;;;;11.73;74.74;99863.06;7364251;19;19935;-67
2024/01/23 09:02:15;;;;;;;;;;;;;;;11.76;74.33;99862.97;7358746;19;19936;-66
2024/01/23 09:04:40;;;;;;;;;;;;;;;11.82;74.62;99848.81;7361663;19;19915;-67
2024/01/23 09:07:05;;;;;;;;;;;;;;;11.88;74.97;99877.34;7361525;19;19919;-66
2024/01/23 09:09:30;;;;;;;;;;;;;;;11.93;75.03;99833.50;7363582;19;20427;-65
2024/01/23 09:11:56;;;;;;;;;;;;;;;11.98;74.80;99862.94;7358418;19;19926;-67
2024/01/23 09:14:21;;;;;;;;;;;;;;;12.04;75.06;99841.75;7366141;19;19915;-64
2024/01/23 09:16:47;;;;;;;;;;;;;;;12.10;75.03;99841.50;7366619;19;20639;-66
2024/01/23 09:19:13;;;;;;;;;;;;;;;12.17;75.12;99822.00;7360236;19;19918;-65
2024/01/23 09:21:38;;;;;;;;;;;;;;;12.23;75.52;99817.41;7362366;19;19935;-65
2024/01/23 09:24:04;;;;;;;;;;;;;;;12.30;75.59;99821.47;7359351;19;20268;-67
2024/01/23 09:26:29;;;;;;;;;;;;;;;12.36;75.80;99823.81;7366117;19;19936;-64
2024/01/23 09:28:55;;;;;;;;;;;;;;;12.44;75.71;99826.94;7356967;19;19922;-66
2024/01/23 09:31:21;;;;;;;;;;;;;;;12.49;75.71;99848.53;7361653;19;19915;-65
2024/01/23 09:33:46;;;;;;;;;;;;;;;12.56;75.96;99813.28;7362586;19;19919;-64
2024/01/23 09:36:12;;;;;;;;;;;;;;;12.61;75.72;99806.06;7360278;19;20346;-65
2024/01/23 09:38:37;;;;;;;;;;;;;;;12.69;75.79;99792.66;7365339;19;19918;-64
2024/01/23 09:41:04;;;;;;;;;;;;;;;12.75;75.86;99791.50;7363971;19;19979;-65
2024/01/23 09:43:30;;;;;;;;;;;;;;;12.81;76.11;99833.13;7359257;19;20305;-66
2024/01/23 09:45:55;;;;;;;;;;;;;;;12.86;76.11;99810.19;7359163;19;19939;-67
2024/01/23 09:48:21;;;;;;;;;;;;;;;12.91;76.02;99784.63;7360034;19;20349;-65
2024/01/23 09:50:46;;;;;;;;;;;;;;;12.96;76.16;99803.59;7360999;19;19915;-66
2024/01/23 09:53:12;;;;;;;;;;;;;;;13.00;76.21;99763.22;7361939;19;19919;-66
2024/01/23 09:55:37;;;;;;;;;;;;;;;13.04;76.09;99767.41;7363449;19;19923;-65
2024/01/23 09:58:03;;;;;;;;;;;;;;;13.08;76.06;99753.25;7371663;19;19918;-65
2024/01/23 10:00:28;;;;;;;;;;;;;;;13.11;76.09;99757.47;7362833;19;19914;-65
2024/01/23 10:02:54;;;;;;;;;;;;;;;13.13;76.48;99777.47;7371974;19;20250;-63
2024/01/23 10:05:21;;;;;;;;;;;;;;;13.16;76.12;99751.09;7370716;19;19938;-65
2024/01/23 10:07:47;;;;;;;;;;;;;;;13.20;76.62;99742.16;7373260;19;19919;-65
2024/01/23 10:10:14;;;;;;;;;;;;;;;13.22;76.68;99739.47;7378342;19;19919;-66
2024/01/23 10:12:40;;;;;;;;;;;;;;;13.24;76.23;99748.13;7368829;19;19934;-65
2024/01/23 10:15:08;;;;;;;;;;;;;;;13.22;76.33;99713.25;7371775;19;19921;-65
2024/01/23 10:17:34;;;;;;;;;;;;;;;13.31;76.49;99746.06;7374343;19;19911;-66
2024/01/23 10:19:59;;;;;;;;;;;;;;;13.33;76.71;99725.84;7341365;19;19915;-66
2024/01/23 10:22:24;;;;;;;;;;;;;;;13.35;76.90;99730.09;7364680;19;19915;-64
2024/01/23 10:24:50;;;;;;;;;;;;;;;13.37;76.84;99722.16;7376756;19;20635;-66
2024/01/23 10:27:16;;;;;;;;;;;;;;;13.40;77.12;99704.50;7371711;19;19911;-65
2024/01/23 10:29:41;;;;;;;;;;;;;;;13.43;77.05;99696.50;7369152;19;19914;-65
2024/01/23 10:32:07;;;;;;;;;;;;;;;13.47;77.21;99689.28;7371717;19;19919;-64
2024/01/23 10:34:33;;;;;;;;;;;;;;;13.48;77.39;99663.00;7372292;19;19986;-66
2024/01/23 10:36:58;;;;;;;;;;;;;;;13.52;77.42;99674.16;7373204;19;20011;-66
2024/01/23 10:39:26;;;;;;;;;;;;;;;13.56;77.63;99670.47;7377046;19;19918;-66
2024/01/23 10:41:52;;;;;;;;;;;;;;;13.61;77.70;99667.59;7368916;19;19931;-64
2024/01/23 10:44:19;;;;;;;;;;;;;;;13.63;77.71;99650.00;7368466;19;19911;-64
2024/01/23 10:46:45;;;;;;;;;;;;;;;13.66;77.85;99671.69;7375003;19;20321;-66
2024/01/23 10:49:11;;;;;;;;;;;;;;;13.71;77.94;99643.44;7378145;19;19950;-66
2024/01/23 10:51:36;;;;;;;;;;;;;;;13.76;77.77;99646.66;7372591;19;19982;-67
2024/01/23 10:54:08;;;;;;;;;;;;;;;13.80;77.80;99601.91;7368848;19;19919;-66
2024/01/23 10:56:37;;;;;;;;;;;;;;;13.81;77.87;99611.47;7370906;19;19928;-66
2024/01/23 10:59:06;;;;;;;;;;;;;;;13.92;78.38;99637.97;7366940;19;19919;-65
2024/01/23 11:01:34;;;;;;;;;;;;;;;13.96;78.43;99657.88;7370119;19;19915;-65
2024/01/23 11:04:00;;;;;;;;;;;;;;;13.99;78.16;99626.25;7369197;19;19914;-67
2024/01/23 11:06:28;;;;;;;;;;;;;;;14.02;78.09;99611.16;7366243;19;20638;-67
2024/01/23 11:09:06;;;;;;;;;;;;;;;14.06;78.19;99616.25;7377701;19;19948;-65
2024/01/23 11:11:41;;;;;;;;;;;;;;;14.10;78.46;99587.13;7366301;19;19943;-65
2024/01/23 11:14:12;;;;;;;;;;;;;;;14.18;78.67;99595.41;7373833;19;19915;-65
2024/01/23 11:16:38;;;;;;;;;;;;;;;14.25;78.80;99588.06;7369008;19;19919;-67
2024/01/23 11:19:04;;;;;;;;;;;;;;;14.34;79.04;99590.16;7368720;19;19939;-66
2024/01/23 11:21:30;;;;;;;;;;;;;;;14.46;79.03;99567.63;7371143;19;19915;-66
2024/01/23 11:23:59;;;;;;;;;;;;;;;14.60;79.08;99579.97;7367617;19;19986;-66
2024/01/23 11:26:26;;;;;;;;;;;;;;;14.69;78.67;99575.03;7367558;19;20400;-64
2024/01/23 11:28:51;;;;;;;;;;;;;;;14.81;78.35;99559.53;7369940;19;20494;-68
2024/01/23 11:31:20;;;;;;;;;;;;;;;14.88;78.19;99593.22;7369447;19;19917;-66
2024/01/23 11:33:45;;;;;;;;;;;;;;;14.93;78.26;99567.53;7364542;19;21134;-67
2024/01/23 11:36:11;;;;;;;;;;;;;;;14.98;78.10;99559.38;7370128;19;19907;-67
2024/01/23 11:38:43;;;;;;;;;;;;;;;15.01;77.81;99580.22;7373090;19;20278;-65
2024/01/23 11:41:15;;;;;;;;;;;;;;;15.12;78.40;99562.03;7364247;19;20831;-68
2024/01/23 11:43:40;;;;;;;;;;;;;;;15.20;78.36;99554.50;7363993;19;19926;-66
2024/01/23 11:46:10;;;;;;;;;;;;;;;15.31;77.92;99546.84;7369165;19;19990;-67
2024/01/23 11:48:36;;;;;;;;;;;;;;;15.40;77.79;99561.19;7360546;19;19907;-66
2024/01/23 11:51:04;;;;;;;;;;;;;;;15.51;77.71;99542.13;7367222;19;20556;-69
2024/01/23 11:53:29;;;;;;;;;;;;;;;15.48;77.90;99511.59;7371591;19;19922;-69
2024/01/23 11:55:55;;;;;;;;;;;;;;;15.64;77.75;99532.59;7372153;19;19919;-67
2024/01/23 11:58:20;;;;;;;;;;;;;;;15.71;77.30;99533.91;7364312;19;20374;-69
2024/01/23 12:00:45;;;;;;;;;;;;;;;15.78;77.08;99527.31;7370093;19;20389;-68
2024/01/23 12:03:20;;;;;;;;;;;;;;;15.82;77.16;99520.91;7369182;19;20639;-69
2024/01/23 12:05:45;;;;;;;;;;;;;;;15.88;77.40;99540.72;7371067;19;19951;-67
2024/01/23 12:08:11;;;;;;;;;;;;;;;15.90;76.88;99515.16;7369860;19;19915;-67
2024/01/23 12:10:37;;;;;;;;;;;;;;;15.92;76.59;99531.72;7369009;19;19925;-67
2024/01/23 12:13:02;;;;;;;;;;;;;;;15.93;76.90;99522.03;7368385;19;20662;-67
2024/01/23 12:15:27;;;;;;;;;;;;;;;15.95;76.99;99535.91;7368482;19;19955;-66
2024/01/23 12:17:53;;;;;;;;;;;;;;;15.99;76.92;99490.88;7367493;19;19915;-68
2024/01/23 12:20:18;;;;;;;;;;;;;;;16.02;77.17;99526.69;7368856;19;19923;-67
2024/01/23 12:22:43;;;;;;;;;;;;;;;16.05;77.03;99516.78;7369112;19;20008;-68
2024/01/23 12:25:10;;;;;;;;;;;;;;;16.07;76.80;99541.25;7365797;19;20262;-67
2024/01/23 12:27:35;;;;;;;;;;;;;;;16.08;77.31;99547.38;7368691;19;19939;-67
2024/01/23 12:30:01;;;;;;;;;;;;;;;16.09;76.69;99522.72;7367515;19;19924;-67
2024/01/23 12:32:29;;;;;;;;;;;;;;;16.07;76.82;99537.78;7362161;19;19940;-68
2024/01/23 12:34:55;;;;;;;;;;;;;;;16.04;76.63;99530.06;7369539;19;19935;-66
2024/01/23 12:37:31;;;;;;;;;;;;;;;16.01;76.59;99525.00;7367772;19;19939;-66
2024/01/23 12:40:07;;;;;;;;;;;;;;;15.97;76.46;99518.25;7365762;19;19919;-65
2024/01/23 12:42:33;;;;;;;;;;;;;;;15.90;76.47;99485.34;7363107;19;19922;-68
2024/01/23 12:44:58;;;;;;;;;;;;;;;15.85;76.75;99484.78;7368532;19;19921;-66
2024/01/23 12:47:23;;;;;;;;;;;;;;;15.78;76.65;99498.34;7367230;19;20030;-65
2024/01/23 12:49:49;;;;;;;;;;;;;;;15.75;77.18;99492.44;7366936;19;19911;-65
2024/01/23 12:52:15;;;;;;;;;;;;;;;15.73;76.92;99483.78;7364778;19;19974;-67
2024/01/23 12:54:40;;;;;;;;;;;;;;;15.71;77.69;99459.34;7369195;19;19918;-66
2024/01/23 12:57:06;;;;;;;;;;;;;;;15.71;77.66;99480.41;7366199;19;19999;-66
2024/01/23 12:59:31;;;;;;;;;;;;;;;15.71;77.64;99468.09;7369281;19;19915;-68
2024/01/23 13:01:56;;;;;;;;;;;;;;;15.72;77.69;99461.91;7369031;19;19951;-66
2024/01/23 13:04:22;;;;;;;;;;;;;;;15.75;77.62;99447.69;7368688;19;19991;-67
2024/01/23 13:06:47;;;;;;;;;;;;;;;15.77;77.87;99469.50;7366460;19;19914;-67
2024/01/23 13:09:12;;;;;;;;;;;;;;;15.77;77.61;99459.81;7355522;19;19915;-67
2024/01/23 13:11:37;;;;;;;;;;;;;;;15.80;77.66;99459.59;7362950;19;19970;-69
2024/01/23 13:14:03;;;;;;;;;;;;;;;15.82;78.14;99452.47;7362618;19;19903;-67
2024/01/23 13:16:28;;;;;;;;;;;;;;;15.84;77.78;99444.47;7366924;19;19915;-66
2024/01/23 13:18:53;;;;;;;;;;;;;;;15.85;77.96;99443.50;7361272;19;19935;-66
2024/01/23 13:21:19;;;;;;;;;;;;;;;15.85;77.87;99454.03;7369226;19;19914;-68
2024/01/23 13:23:45;;;;;;;;;;;;;;;15.86;77.66;99426.78;7361711;19;19967;-69
2024/01/23 13:26:11;;;;;;;;;;;;;;;15.87;77.60;99438.16;7363217;19;19920;-68
2024/01/23 13:28:36;;;;;;;;;;;;;;;15.89;77.88;99425.75;7357413;19;19919;-67
2024/01/23 13:31:04;;;;;;;;;;;;;;;15.90;78.22;99443.22;7361882;19;19919;-69
2024/01/23 13:33:31;;;;;;;;;;;;;;;15.91;77.83;99434.38;7362721;19;19918;-68
2024/01/23 13:35:57;;;;;;;;;;;;;;;15.91;77.81;99476.50;7367679;19;19915;-67
2024/01/23 13:38:24;;;;;;;;;;;;;;;15.93;78.24;99416.69;7366177;19;19937;-67
2024/01/23 13:40:49;;;;;;;;;;;;;;;15.94;78.01;99440.28;7365992;19;19943;-68
2024/01/23 13:43:14;;;;;;;;;;;;;;;15.95;78.10;99417.44;7364807;19;19918;-69
2024/01/23 13:45:40;;;;;;;;;;;;;;;15.96;77.96;99413.84;7370027;19;19915;-68
2024/01/23 13:48:06;;;;;;;;;;;;;;;15.97;78.16;99415.56;7363960;19;20068;-67
2024/01/23 13:50:31;;;;;;;;;;;;;;;15.96;77.95;99396.25;7359144;19;19974;-69
2024/01/23 13:52:56;;;;;;;;;;;;;;;15.98;78.24;99393.56;7361492;19;19911;-68
2024/01/23 13:55:23;;;;;;;;;;;;;;;15.98;78.25;99396.19;7365334;19;20482;-68
2024/01/23 13:57:48;;;;;;;;;;;;;;;15.98;78.02;99386.50;7362037;19;19929;-67
2024/01/23 14:00:19;;;;;;;;;;;;;;;16.00;78.05;99394.28;7361373;19;20364;-68
2024/01/23 14:02:46;;;;;;;;;;;;;;;16.01;78.35;99377.53;7364206;19;20332;-67
2024/01/23 14:05:12;;;;;;;;;;;;;;;16.02;78.71;99380.09;7355470;19;19911;-69
2024/01/23 14:07:39;;;;;;;;;;;;;;;16.04;78.26;99361.53;7365981;19;19915;-67
2024/01/23 14:10:05;;;;;;;;;;;;;;;16.05;78.51;99379.03;7363266;19;19943;-68
2024/01/23 14:12:30;;;;;;;;;;;;;;;16.05;78.29;99343.00;7364258;19;19915;-68
2024/01/23 14:14:56;;;;;;;;;;;;;;;16.05;78.04;99358.78;7362676;19;19926;-68
2024/01/23 14:17:21;;;;;;;;;;;;;;;16.01;77.91;99333.59;7362638;19;19947;-67
2024/01/23 14:19:47;;;;;;;;;;;;;;;15.99;77.98;99348.69;7364564;19;19923;-68
2024/01/23 14:22:15;;;;;;;;;;;;;;;15.98;78.16;99325.94;7369080;19;19919;-68
2024/01/23 14:24:41;;;;;;;;;;;;;;;15.96;77.60;99338.34;7362014;19;19968;-68
2024/01/23 14:27:07;;;;;;;;;;;;;;;15.95;78.21;99323.50;7355283;19;19919;-69
2024/01/23 14:29:32;;;;;;;;;;;;;;;15.94;77.83;99315.72;7348900;19;19939;-69
2024/01/23 14:31:58;;;;;;;;;;;;;;;15.94;78.05;99326.25;7371204;19;19932;-68
2024/01/23 14:34:24;;;;;;;;;;;;;;;15.93;78.13;99335.09;7363718;19;19939;-68
2024/01/23 14:36:49;;;;;;;;;;;;;;;15.93;78.38;99327.19;7362847;19;19915;-68
2024/01/23 14:39:14;;;;;;;;;;;;;;;15.94;77.91;99334.13;7365739;19;20271;-69
2024/01/23 14:41:39;;;;;;;;;;;;;;;15.94;78.15;99321.81;7363511;19;20616;-68
2024/01/23 14:44:05;;;;;;;;;;;;;;;15.93;78.09;99317.50;7365748;19;19913;-68
2024/01/23 14:46:31;;;;;;;;;;;;;;;15.94;78.53;99318.34;7370486;19;19915;-69
2024/01/23 14:48:56;;;;;;;;;;;;;;;15.93;78.21;99316.66;7368730;19;19911;-68
2024/01/23 14:51:21;;;;;;;;;;;;;;;15.94;78.26;99315.72;7364313;19;19911;-69
2024/01/23 14:53:46;;;;;;;;;;;;;;;15.94;78.29;99302.53;7368519;19;19919;-68
2024/01/23 14:56:12;;;;;;;;;;;;;;;15.94;78.25;99310.44;7369035;19;19923;-68
2024/01/23 14:58:37;;;;;;;;;;;;;;;15.94;78.56;99303.38;7370098;19;19919;-68
2024/01/23 15:01:03;;;;;;;;;;;;;;;15.95;78.67;99312.13;7370655;19;19911;-68
2024/01/23 15:03:29;;;;;;;;;;;;;;;15.97;78.91;99291.81;7368609;19;20393;-68
2024/01/23 15:05:56;;;;;;;;;;;;;;;15.97;78.39;99312.88;7369501;19;19979;-68
2024/01/23 15:08:22;;;;;;;;;;;;;;;15.99;78.66;99313.59;7371821;19;19926;-68
2024/01/23 15:10:47;;;;;;;;;;;;;;;16.01;78.59;99303.81;7376168;19;20328;-68
2024/01/23 15:13:12;;;;;;;;;;;;;;;16.00;78.30;99296.84;7372249;19;19925;-67
2024/01/23 15:15:38;;;;;;;;;;;;;;;15.98;78.17;99304.88;7367911;19;20337;-67
2024/01/23 15:18:03;;;;;;;;;;;;;;;15.97;77.78;99326.03;7371713;19;19926;-68
2024/01/23 15:20:29;;;;;;;;;;;;;;;15.91;77.94;99315.91;7366993;19;19936;-65
2024/01/23 15:22:54;;;;;;;;;;;;;;;15.88;77.59;99339.81;7369591;19;19927;-64
2024/01/23 15:25:19;;;;;;;;;;;;;;;15.81;78.02;99334.97;7366652;19;20309;-65
2024/01/23 15:27:44;;;;;;;;;;;;;;;15.75;78.09;99334.50;7359809;19;19927;-64
2024/01/23 15:30:10;;;;;;;;;;;;;;;15.68;78.02;99320.91;7349823;19;19915;-64
2024/01/23 15:32:36;;;;;;;;;;;;;;;15.62;77.96;99352.88;7364525;19;20165;-64
2024/01/23 15:35:01;;;;;;;;;;;;;;;15.56;78.04;99340.97;7371148;19;20209;-65
2024/01/23 15:37:26;;;;;;;;;;;;;;;15.51;77.92;99360.59;7370742;19;19923;-65
2024/01/23 15:39:52;;;;;;;;;;;;;;;15.46;78.62;99365.28;7369079;19;19915;-65
2024/01/23 15:42:17;;;;;;;;;;;;;;;15.41;78.66;99356.84;7361304;19;19922;-64
2024/01/23 15:44:45;;;;;;;;;;;;;;;15.37;78.49;99371.16;7370468;19;20360;-63
2024/01/23 15:47:11;;;;;;;;;;;;;;;15.34;78.55;99358.19;7359517;19;20730;-65
2024/01/23 15:49:36;;;;;;;;;;;;;;;15.28;78.52;99391.84;7369262;19;19911;-65
2024/01/23 15:52:01;;;;;;;;;;;;;;;15.15;78.22;99330.44;7366596;19;19911;-65
2024/01/23 15:54:27;;;;;;;;;;;;;;;15.11;77.67;99371.03;7370404;19;19917;-65
2024/01/23 15:56:52;;;;;;;;;;;;;;;14.99;78.03;99377.03;7346846;19;20340;-64
2024/01/23 15:59:17;;;;;;;;;;;;;;;14.91;78.02;99371.44;7362287;19;19923;-65
2024/01/23 16:01:43;;;;;;;;;;;;;;;14.82;78.22;99353.59;7368411;19;20611;-67
2024/01/23 16:04:10;;;;;;;;;;;;;;;14.73;78.56;99389.16;7367555;19;19914;-66
2024/01/23 16:06:35;;;;;;;;;;;;;;;14.66;78.67;99379.97;7373249;19;19946;-66
2024/01/23 16:09:01;;;;;;;;;;;;;;;14.61;78.97;99392.53;7370853;19;19937;-65
2024/01/23 16:11:26;;;;;;;;;;;;;;;14.57;79.42;99381.34;7367425;19;19922;-66
2024/01/23 16:13:51;;;;;;;;;;;;;;;14.54;79.12;99381.53;7367377;19;19906;-65
2024/01/23 16:16:17;;;;;;;;;;;;;;;14.51;79.31;99384.34;7359551;19;19983;-66
2024/01/23 16:18:42;;;;;;;;;;;;;;;14.48;79.69;99380.13;7361727;19;20687;-65
2024/01/23 16:21:07;;;;;;;;;;;;;;;14.50;79.90;99366.91;7368391;19;19936;-65
2024/01/23 16:23:33;;;;;;;;;;;;;;;14.48;79.75;99366.13;7364951;19;19919;-65
2024/01/23 16:25:58;;;;;;;;;;;;;;;14.48;79.57;99355.63;7367544;19;19927;-66
2024/01/23 16:28:24;;;;;;;;;;;;;;;14.49;79.68;99373.06;7366801;19;20324;-65
2024/01/23 16:30:49;;;;;;;;;;;;;;;14.49;79.72;99388.84;7364667;19;20012;-65
2024/01/23 16:33:14;;;;;;;;;;;;;;;14.41;79.67;99389.28;7363807;19;19919;-68
2024/01/23 16:35:41;;;;;;;;;;;;;;;14.49;79.69;99389.69;7369371;19;19911;-66
2024/01/23 16:38:06;;;;;;;;;;;;;;;14.50;79.87;99401.91;7367186;19;20721;-66
2024/01/23 16:40:32;;;;;;;;;;;;;;;14.49;79.63;99367.81;7369119;19;19913;-66
2024/01/23 16:42:57;;;;;;;;;;;;;;;14.48;79.67;99392.41;7366159;19;19915;-65
2024/01/23 16:45:22;;;;;;;;;;;;;;;14.47;79.39;99364.41;7362232;19;19986;-66
2024/01/23 16:47:47;;;;;;;;;;;;;;;14.44;79.22;99360.19;7368241;19;20352;-67
2024/01/23 16:50:13;;;;;;;;;;;;;;;14.42;79.25;99367.31;7363144;19;20340;-67
2024/01/23 16:52:38;;;;;;;;;;;;;;;14.41;79.32;99362.16;7369118;19;19919;-66
2024/01/23 16:55:04;;;;;;;;;;;;;;;14.36;79.62;99353.72;7365545;19;20304;-68
2024/01/23 16:57:29;;;;;;;;;;;;;;;14.33;79.63;99362.63;7363345;19;19911;-68
2024/01/23 16:59:56;;;;;;;;;;;;;;;14.32;79.34;99360.09;7353829;19;19911;-67
2024/01/23 17:02:21;;;;;;;;;;;;;;;14.28;79.28;99376.00;7368442;19;19915;-67
2024/01/23 17:04:47;;;;;;;;;;;;;;;14.25;79.41;99376.22;7362369;19;20334;-68
2024/01/23 17:07:12;;;;;;;;;;;;;;;14.23;79.92;99375.44;7364122;19;19922;-67
2024/01/23 17:09:37;;;;;;;;;;;;;;;14.22;79.38;99362.41;7364866;19;19970;-67
2024/01/23 17:12:03;;;;;;;;;;;;;;;14.20;79.46;99366.91;7364296;19;19915;-68
2024/01/23 17:14:29;;;;;;;;;;;;;;;14.17;79.82;99399.44;7365445;19;19995;-67
2024/01/23 17:16:54;;;;;;;;;;;;;;;14.15;79.43;99377.69;7362892;19;19924;-69
2024/01/23 17:19:19;;;;;;;;;;;;;;;14.13;79.93;99429.41;7359446;19;19906;-68
2024/01/23 17:21:45;;;;;;;;;;;;;;;14.12;79.57;99443.47;7361977;19;20354;-68
2024/01/23 17:24:10;;;;;;;;;;;;;;;14.11;79.53;99457.56;7365152;19;19919;-68
2024/01/23 17:26:37;;;;;;;;;;;;;;;14.11;79.36;99436.53;7364646;19;19907;-68
2024/01/23 17:29:02;;;;;;;;;;;;;;;14.08;79.23;99473.47;7359103;19;19915;-68
2024/01/23 17:31:27;;;;;;;;;;;;;;;14.05;78.95;99410.66;7370955;19;19926;-69
2024/01/23 17:33:53;;;;;;;;;;;;;;;14.02;78.75;99400.31;7359455;19;19907;-68
2024/01/23 17:36:18;;;;;;;;;;;;;;;13.99;78.67;99405.75;7366948;19;19922;-68
2024/01/23 17:38:43;;;;;;;;;;;;;;;13.95;78.31;99410.34;7337389;19;19933;-68
2024/01/23 17:41:08;;;;;;;;;;;;;;;13.92;78.40;99404.41;7361665;19;19922;-68
2024/01/23 17:43:34;;;;;;;;;;;;;;;13.89;78.56;99388.81;7363031;19;20253;-68
2024/01/23 17:45:59;;;;;;;;;;;;;;;13.86;78.41;99383.78;7366634;19;19919;-68
2024/01/23 17:48:24;;;;;;;;;;;;;;;13.82;78.45;99403.25;7360888;19;19990;-68
2024/01/23 17:50:49;;;;;;;;;;;;;;;13.79;78.48;99374.53;7366599;19;19956;-68
2024/01/23 17:53:15;;;;;;;;;;;;;;;13.76;78.66;99394.78;7360809;19;19923;-68
2024/01/23 17:55:40;;;;;;;;;;;;;;;13.71;78.88;99394.19;7364573;19;19911;-68
2024/01/23 17:58:05;;;;;;;;;;;;;;;13.65;78.77;99359.59;7361127;19;19923;-68
2024/01/23 18:00:31;;;;;;;;;;;;;;;13.68;78.78;99399.59;7353453;19;19918;-67